Prides Crossing, Massachusetts
Current Conditions -  °F | °C
As of 9:53 PM on Monday 22 Dec 2014 (Local Time) from KBVY Reporting Station
Overcast Overcast  
Wind Chill: 36°   Ceiling: 3300
Heat Index: 41°   Visibility: 10mi
Dew Point: 37°   Wind: 7mph
Humidity: 86%   Direction: 100°E
Pressure: 30.31"   Gusts: NA
Location:  42.56°N, 70.82°W
Report Text: KBVY 230253Z AUTO 10006KT 10SM SCT024 BKN033 OVC040 05/03 A3031 RMK AO2 RAB02E49 SLP259 P0000 60003 T00500028 58007
Loading
Personal Weather Stations






























Interactive Weather Map New forecast layout! Learn more

10-Day Weather Forecast

Advertisements
Track Severe Weather on mobile